sensor_id;sensor_type;location;lat;lon;timestamp;pressure;altitude;pressure_sealevel;temperature;humidity
33286;BME280;19656;50.096;20.014;2023-02-22T00:13:27;98960.08;;;8.58;55.43
33286;BME280;19656;50.096;20.014;2023-02-22T00:38:17;98966.68;;;8.60;55.94
33286;BME280;19656;50.096;20.014;2023-02-22T00:51:03;98971.59;;;8.55;56.00
33286;BME280;19656;50.096;20.014;2023-02-22T01:20:47;98989.71;;;8.50;56.39
33286;BME280;19656;50.096;20.014;2023-02-22T01:26:38;98986.87;;;8.50;56.21
33286;BME280;19656;50.096;20.014;2023-02-22T01:44:39;98990.98;;;8.46;56.69
33286;BME280;19656;50.096;20.014;2023-02-22T02:14:46;98979.15;;;8.52;56.85
33286;BME280;19656;50.096;20.014;2023-02-22T02:47:01;98984.65;;;8.35;57.69
33286;BME280;19656;50.096;20.014;2023-02-22T03:53:15;99014.15;;;8.15;58.33
33286;BME280;19656;50.096;20.014;2023-02-22T04:07:44;99016.02;;;8.20;58.45
33286;BME280;19656;50.096;20.014;2023-02-22T04:21:01;99023.31;;;8.16;58.31
33286;BME280;19656;50.096;20.014;2023-02-22T04:27:08;99022.73;;;8.10;58.58
33286;BME280;19656;50.096;20.014;2023-02-22T04:53:42;99026.46;;;8.06;58.48
33286;BME280;19656;50.096;20.014;2023-02-22T04:58:46;99031.59;;;8.06;58.49
33286;BME280;19656;50.096;20.014;2023-02-22T05:03:51;99032.54;;;8.04;58.60
33286;BME280;19656;50.096;20.014;2023-02-22T05:08:54;99028.72;;;8.07;58.53
33286;BME280;19656;50.096;20.014;2023-02-22T05:13:58;99027.51;;;8.10;58.75
33286;BME280;19656;50.096;20.014;2023-02-22T05:19:01;99025.48;;;8.08;58.61
33286;BME280;19656;50.096;20.014;2023-02-22T05:24:05;99027.34;;;8.06;58.85
33286;BME280;19656;50.096;20.014;2023-02-22T05:29:09;99029.02;;;8.08;59.10
33286;BME280;19656;50.096;20.014;2023-02-22T05:34:14;99036.20;;;8.06;58.59
33286;BME280;19656;50.096;20.014;2023-02-22T05:39:17;99040.17;;;8.00;58.58
33286;BME280;19656;50.096;20.014;2023-02-22T05:44:21;99045.48;;;7.97;59.21
33286;BME280;19656;50.096;20.014;2023-02-22T05:49:25;99052.63;;;7.99;59.11
33286;BME280;19656;50.096;20.014;2023-02-22T05:54:28;99058.44;;;7.99;59.08
33286;BME280;19656;50.096;20.014;2023-02-22T05:59:36;99066.73;;;7.93;59.24
33286;BME280;19656;50.096;20.014;2023-02-22T06:04:43;99072.08;;;7.84;59.33
33286;BME280;19656;50.096;20.014;2023-02-22T06:09:47;99076.83;;;7.89;59.38
33286;BME280;19656;50.096;20.014;2023-02-22T06:14:50;99080.06;;;7.91;59.29
33286;BME280;19656;50.096;20.014;2023-02-22T06:19:54;99089.52;;;7.93;59.14
33286;BME280;19656;50.096;20.014;2023-02-22T06:25:04;99093.77;;;7.96;59.31
33286;BME280;19656;50.096;20.014;2023-02-22T06:30:12;99094.36;;;7.91;59.38
33286;BME280;19656;50.096;20.014;2023-02-22T06:35:17;99101.07;;;7.99;60.32
33286;BME280;19656;50.096;20.014;2023-02-22T06:40:20;99103.21;;;8.25;59.78
33286;BME280;19656;50.096;20.014;2023-02-22T06:45:24;99107.16;;;8.21;59.21
33286;BME280;19656;50.096;20.014;2023-02-22T06:50:29;99114.17;;;8.05;59.27
33286;BME280;19656;50.096;20.014;2023-02-22T06:55:34;99113.89;;;7.89;59.61
33286;BME280;19656;50.096;20.014;2023-02-22T07:00:37;99118.93;;;7.84;59.95
33286;BME280;19656;50.096;20.014;2023-02-22T07:05:41;99118.27;;;7.87;60.04
33286;BME280;19656;50.096;20.014;2023-02-22T07:10:45;99121.93;;;7.87;59.81
33286;BME280;19656;50.096;20.014;2023-02-22T07:15:48;99120.27;;;7.89;59.79
33286;BME280;19656;50.096;20.014;2023-02-22T07:20:51;99121.38;;;7.84;59.76
33286;BME280;19656;50.096;20.014;2023-02-22T07:25:59;99125.61;;;7.84;59.96
33286;BME280;19656;50.096;20.014;2023-02-22T07:31:03;99128.39;;;7.89;60.36
33286;BME280;19656;50.096;20.014;2023-02-22T07:36:07;99130.11;;;7.90;60.04
33286;BME280;19656;50.096;20.014;2023-02-22T07:41:11;99126.58;;;7.90;60.08
33286;BME280;19656;50.096;20.014;2023-02-22T07:46:15;99122.83;;;8.01;59.83
33286;BME280;19656;50.096;20.014;2023-02-22T07:51:18;99123.04;;;8.11;59.35
33286;BME280;19656;50.096;20.014;2023-02-22T07:56:23;99126.39;;;8.29;59.37
33286;BME280;19656;50.096;20.014;2023-02-22T08:01:28;99123.96;;;8.42;58.82
33286;BME280;19656;50.096;20.014;2023-02-22T08:06:32;99131.29;;;8.47;58.42
33286;BME280;19656;50.096;20.014;2023-02-22T08:11:36;99130.91;;;8.55;58.16
33286;BME280;19656;50.096;20.014;2023-02-22T08:16:40;99132.29;;;8.59;57.39
33286;BME280;19656;50.096;20.014;2023-02-22T08:21:46;99129.36;;;8.67;56.36
33286;BME280;19656;50.096;20.014;2023-02-22T08:26:50;99131.55;;;8.72;55.35
33286;BME280;19656;50.096;20.014;2023-02-22T08:31:55;99134.95;;;8.82;54.96
33286;BME280;19656;50.096;20.014;2023-02-22T08:37:01;99135.95;;;8.87;54.18
33286;BME280;19656;50.096;20.014;2023-02-22T08:42:05;99138.04;;;8.90;53.77
33286;BME280;19656;50.096;20.014;2023-02-22T08:47:11;99138.07;;;8.96;53.81
33286;BME280;19656;50.096;20.014;2023-02-22T08:52:16;99139.38;;;8.95;52.13
33286;BME280;19656;50.096;20.014;2023-02-22T08:57:21;99138.15;;;8.92;51.94
33286;BME280;19656;50.096;20.014;2023-02-22T09:02:25;99142.23;;;8.91;51.40
33286;BME280;19656;50.096;20.014;2023-02-22T09:07:29;99142.88;;;8.96;51.09
33286;BME280;19656;50.096;20.014;2023-02-22T09:12:33;99143.92;;;9.06;50.33
33286;BME280;19656;50.096;20.014;2023-02-22T09:17:37;99143.33;;;9.20;50.16
33286;BME280;19656;50.096;20.014;2023-02-22T09:22:46;99143.10;;;9.28;49.91
33286;BME280;19656;50.096;20.014;2023-02-22T09:27:52;99146.92;;;9.29;49.74
33286;BME280;19656;50.096;20.014;2023-02-22T09:33:06;99144.55;;;9.27;49.35
33286;BME280;19656;50.096;20.014;2023-02-22T09:38:16;99143.00;;;9.29;49.50
33286;BME280;19656;50.096;20.014;2023-02-22T09:48:35;99141.95;;;9.35;49.79
33286;BME280;19656;50.096;20.014;2023-02-22T09:53:47;99138.59;;;9.41;48.93
33286;BME280;19656;50.096;20.014;2023-02-22T09:58:56;99138.93;;;9.42;48.10
33286;BME280;19656;50.096;20.014;2023-02-22T10:04:16;99138.05;;;9.42;48.28
33286;BME280;19656;50.096;20.014;2023-02-22T10:09:26;99136.83;;;9.26;48.14
33286;BME280;19656;50.096;20.014;2023-02-22T10:14:47;99131.27;;;9.20;48.31
33286;BME280;19656;50.096;20.014;2023-02-22T10:20:34;99130.84;;;9.21;48.22
33286;BME280;19656;50.096;20.014;2023-02-22T10:25:43;99126.48;;;9.24;47.50
33286;BME280;19656;50.096;20.014;2023-02-22T10:30:57;99122.55;;;9.24;47.41
33286;BME280;19656;50.096;20.014;2023-02-22T10:36:01;99124.42;;;9.35;49.22
33286;BME280;19656;50.096;20.014;2023-02-22T10:46:14;99116.30;;;9.63;47.54
33286;BME280;19656;50.096;20.014;2023-02-22T10:51:20;99115.34;;;9.67;47.25
33286;BME280;19656;50.096;20.014;2023-02-22T10:56:24;99109.94;;;9.75;47.51
33286;BME280;19656;50.096;20.014;2023-02-22T11:06:33;99109.90;;;9.95;46.57
33286;BME280;19656;50.096;20.014;2023-02-22T11:11:39;99106.48;;;10.31;45.16
33286;BME280;19656;50.096;20.014;2023-02-22T11:16:50;99108.34;;;10.36;44.48
33286;BME280;19656;50.096;20.014;2023-02-22T11:27:37;99101.95;;;10.36;43.75
33286;BME280;19656;50.096;20.014;2023-02-22T11:32:56;99104.03;;;10.40;43.56
33286;BME280;19656;50.096;20.014;2023-02-22T11:43:19;99099.14;;;10.33;42.60
33286;BME280;19656;50.096;20.014;2023-02-22T11:48:22;99105.45;;;10.28;42.43
33286;BME280;19656;50.096;20.014;2023-02-22T11:53:28;99104.27;;;10.27;42.92
33286;BME280;19656;50.096;20.014;2023-02-22T12:04:18;99097.58;;;10.39;42.81
33286;BME280;19656;50.096;20.014;2023-02-22T12:20:22;99090.63;;;10.53;42.21
33286;BME280;19656;50.096;20.014;2023-02-22T12:25:31;99089.38;;;10.71;42.43
33286;BME280;19656;50.096;20.014;2023-02-22T12:30:43;99088.21;;;10.73;41.35
33286;BME280;19656;50.096;20.014;2023-02-22T12:35:51;99082.65;;;10.62;41.13
33286;BME280;19656;50.096;20.014;2023-02-22T12:46:46;99078.02;;;10.62;40.91
33286;BME280;19656;50.096;20.014;2023-02-22T13:02:59;99080.15;;;10.74;41.13
33286;BME280;19656;50.096;20.014;2023-02-22T13:08:25;99076.86;;;11.09;40.89
33286;BME280;19656;50.096;20.014;2023-02-22T13:29:48;99076.52;;;11.06;40.26
33286;BME280;19656;50.096;20.014;2023-02-22T13:41:06;99081.41;;;11.87;49.33
33286;BME280;19656;50.096;20.014;2023-02-22T13:46:40;99074.27;;;12.63;44.68
33286;BME280;19656;50.096;20.014;2023-02-22T13:51:54;99079.27;;;12.19;39.79
33286;BME280;19656;50.096;20.014;2023-02-22T13:57:00;99081.86;;;11.83;39.75
33286;BME280;19656;50.096;20.014;2023-02-22T14:02:55;99084.07;;;11.52;39.51
33286;BME280;19656;50.096;20.014;2023-02-22T14:07:53;99084.27;;;11.18;39.79
33286;BME280;19656;50.096;20.014;2023-02-22T14:13:04;99083.58;;;10.96;40.04
33286;BME280;19656;50.096;20.014;2023-02-22T14:18:15;99079.33;;;10.78;41.17
33286;BME280;19656;50.096;20.014;2023-02-22T14:28:53;99083.20;;;10.64;42.83
33286;BME280;19656;50.096;20.014;2023-02-22T14:39:34;99081.23;;;10.68;42.85
33286;BME280;19656;50.096;20.014;2023-02-22T14:50:02;99088.56;;;10.58;42.48
33286;BME280;19656;50.096;20.014;2023-02-22T14:55:21;99093.83;;;10.51;42.84
33286;BME280;19656;50.096;20.014;2023-02-22T15:00:43;99094.34;;;10.39;42.11
33286;BME280;19656;50.096;20.014;2023-02-22T15:05:48;99092.95;;;10.23;42.70
33286;BME280;19656;50.096;20.014;2023-02-22T15:10:54;99093.34;;;10.20;43.18
33286;BME280;19656;50.096;20.014;2023-02-22T15:16:00;99095.05;;;10.15;42.91
33286;BME280;19656;50.096;20.014;2023-02-22T15:21:11;99092.80;;;10.11;43.56
33286;BME280;19656;50.096;20.014;2023-02-22T15:26:38;99090.43;;;10.06;43.75
33286;BME280;19656;50.096;20.014;2023-02-22T15:37:31;99091.39;;;9.87;44.15
33286;BME280;19656;50.096;20.014;2023-02-22T15:42:47;99091.08;;;9.80;44.34
33286;BME280;19656;50.096;20.014;2023-02-22T15:47:51;99091.16;;;9.72;45.13
33286;BME280;19656;50.096;20.014;2023-02-22T15:53:28;99092.33;;;9.64;45.02
33286;BME280;19656;50.096;20.014;2023-02-22T15:58:35;99094.41;;;9.56;45.21
33286;BME280;19656;50.096;20.014;2023-02-22T16:03:47;99095.52;;;9.49;45.21
33286;BME280;19656;50.096;20.014;2023-02-22T16:29:26;99117.16;;;9.10;45.51
33286;BME280;19656;50.096;20.014;2023-02-22T16:35:06;99118.02;;;9.01;46.18
33286;BME280;19656;50.096;20.014;2023-02-22T16:47:25;99127.63;;;8.76;46.95
33286;BME280;19656;50.096;20.014;2023-02-22T18:09:52;99143.35;;;7.87;50.97
33286;BME280;19656;50.096;20.014;2023-02-22T18:15:43;99146.11;;;7.80;51.91
33286;BME280;19656;50.096;20.014;2023-02-22T18:35:22;99148.93;;;7.63;51.75
33286;BME280;19656;50.096;20.014;2023-02-22T18:40:27;99147.90;;;7.54;52.69
33286;BME280;19656;50.096;20.014;2023-02-22T18:45:32;99141.71;;;7.48;52.98
33286;BME280;19656;50.096;20.014;2023-02-22T18:51:10;99142.75;;;7.48;52.92
33286;BME280;19656;50.096;20.014;2023-02-22T18:56:16;99140.14;;;7.44;52.53
33286;BME280;19656;50.096;20.014;2023-02-22T19:01:54;99139.95;;;7.29;53.19
33286;BME280;19656;50.096;20.014;2023-02-22T19:06:59;99141.01;;;7.18;53.34
33286;BME280;19656;50.096;20.014;2023-02-22T19:12:09;99144.05;;;7.09;53.58
33286;BME280;19656;50.096;20.014;2023-02-22T19:25:27;99153.36;;;6.86;54.25
33286;BME280;19656;50.096;20.014;2023-02-22T19:31:17;99158.61;;;6.79;54.97
33286;BME280;19656;50.096;20.014;2023-02-22T19:36:22;99159.86;;;6.83;55.54
33286;BME280;19656;50.096;20.014;2023-02-22T19:41:25;99163.07;;;6.78;55.30
33286;BME280;19656;50.096;20.014;2023-02-22T19:46:29;99165.78;;;6.69;55.51
33286;BME280;19656;50.096;20.014;2023-02-22T19:51:33;99161.54;;;6.57;56.18
33286;BME280;19656;50.096;20.014;2023-02-22T19:56:40;99168.09;;;6.48;56.45
33286;BME280;19656;50.096;20.014;2023-02-22T20:10:23;99168.21;;;6.37;56.82
33286;BME280;19656;50.096;20.014;2023-02-22T20:15:59;99166.23;;;6.26;56.84
33286;BME280;19656;50.096;20.014;2023-02-22T20:27:34;99186.77;;;6.11;57.94
33286;BME280;19656;50.096;20.014;2023-02-22T20:40:08;99190.63;;;5.99;58.10
33286;BME280;19656;50.096;20.014;2023-02-22T20:45:12;99195.71;;;5.95;58.72
33286;BME280;19656;50.096;20.014;2023-02-22T20:50:18;99195.58;;;5.93;58.55
33286;BME280;19656;50.096;20.014;2023-02-22T20:55:22;99195.88;;;5.95;58.64
33286;BME280;19656;50.096;20.014;2023-02-22T21:00:26;99196.52;;;5.97;58.14
33286;BME280;19656;50.096;20.014;2023-02-22T21:05:30;99198.52;;;5.90;57.70
33286;BME280;19656;50.096;20.014;2023-02-22T21:10:46;99198.89;;;5.85;57.29
33286;BME280;19656;50.096;20.014;2023-02-22T21:16:28;99198.29;;;5.78;57.10
33286;BME280;19656;50.096;20.014;2023-02-22T21:21:41;99206.84;;;5.71;57.32
33286;BME280;19656;50.096;20.014;2023-02-22T21:26:46;99209.48;;;5.62;57.70
33286;BME280;19656;50.096;20.014;2023-02-22T21:32:05;99208.10;;;5.57;57.89
33286;BME280;19656;50.096;20.014;2023-02-22T21:37:14;99207.67;;;5.54;58.21
33286;BME280;19656;50.096;20.014;2023-02-22T21:42:20;99207.23;;;5.47;57.90
33286;BME280;19656;50.096;20.014;2023-02-22T21:47:24;99204.80;;;5.42;57.97
33286;BME280;19656;50.096;20.014;2023-02-22T21:52:27;99205.89;;;5.36;58.13
33286;BME280;19656;50.096;20.014;2023-02-22T21:57:31;99208.10;;;5.29;58.27
33286;BME280;19656;50.096;20.014;2023-02-22T22:02:35;99216.00;;;5.25;58.60
33286;BME280;19656;50.096;20.014;2023-02-22T22:07:40;99214.60;;;5.20;58.37
33286;BME280;19656;50.096;20.014;2023-02-22T22:12:46;99214.79;;;5.20;58.39
33286;BME280;19656;50.096;20.014;2023-02-22T22:17:52;99212.33;;;5.15;58.45
33286;BME280;19656;50.096;20.014;2023-02-22T22:22:56;99215.70;;;5.10;58.65
33286;BME280;19656;50.096;20.014;2023-02-22T22:27:59;99215.77;;;5.07;58.75
33286;BME280;19656;50.096;20.014;2023-02-22T22:33:04;99216.08;;;5.04;58.65
33286;BME280;19656;50.096;20.014;2023-02-22T22:38:13;99209.67;;;5.01;58.67
33286;BME280;19656;50.096;20.014;2023-02-22T22:43:18;99209.38;;;4.95;58.42
33286;BME280;19656;50.096;20.014;2023-02-22T22:48:22;99212.27;;;4.92;58.43
33286;BME280;19656;50.096;20.014;2023-02-22T22:53:29;99212.77;;;4.89;57.99
33286;BME280;19656;50.096;20.014;2023-02-22T22:58:34;99217.82;;;4.85;58.17
33286;BME280;19656;50.096;20.014;2023-02-22T23:03:37;99219.52;;;4.82;57.81
33286;BME280;19656;50.096;20.014;2023-02-22T23:08:41;99218.74;;;4.79;57.81
33286;BME280;19656;50.096;20.014;2023-02-22T23:13:47;99217.14;;;4.75;57.96
33286;BME280;19656;50.096;20.014;2023-02-22T23:18:50;99214.22;;;4.68;58.01
33286;BME280;19656;50.096;20.014;2023-02-22T23:23:56;99214.27;;;4.66;58.05
33286;BME280;19656;50.096;20.014;2023-02-22T23:29:01;99212.22;;;4.65;58.05
33286;BME280;19656;50.096;20.014;2023-02-22T23:34:05;99211.14;;;4.60;58.13
33286;BME280;19656;50.096;20.014;2023-02-22T23:39:17;99209.17;;;4.57;58.06
33286;BME280;19656;50.096;20.014;2023-02-22T23:44:24;99209.15;;;4.52;58.23
33286;BME280;19656;50.096;20.014;2023-02-22T23:49:29;99210.39;;;4.51;58.56
33286;BME280;19656;50.096;20.014;2023-02-22T23:54:40;99208.02;;;4.49;58.43
33286;BME280;19656;50.096;20.014;2023-02-22T23:59:45;99203.72;;;4.46;58.26
